createdAt,value
2022-12-31T00:00:16.729Z,1.80
2022-12-31T00:02:43.511Z,1.50
2022-12-31T00:05:11.433Z,2.20
2022-12-31T00:10:05.050Z,2.53
2022-12-31T00:12:31.846Z,1.17
2022-12-31T00:14:58.642Z,1.58
2022-12-31T00:17:25.397Z,0.70
2022-12-31T00:19:52.198Z,1.20
2022-12-31T00:22:19.055Z,1.50
2022-12-31T00:24:45.821Z,2.08
2022-12-31T00:27:12.582Z,2.75
2022-12-31T00:29:39.314Z,3.03
2022-12-31T00:32:06.092Z,2.53
2022-12-31T00:34:32.905Z,1.30
2022-12-31T00:36:59.760Z,2.10
2022-12-31T00:39:26.607Z,2.67
2022-12-31T00:41:53.398Z,3.60
2022-12-31T00:44:20.572Z,2.10
2022-12-31T00:46:48.241Z,2.75
2022-12-31T00:49:15.521Z,2.63
2022-12-31T00:51:44.694Z,1.75
2022-12-31T00:54:11.502Z,5.57
2022-12-31T00:56:38.466Z,3.05
2022-12-31T00:59:05.203Z,2.28
2022-12-31T01:01:39.504Z,2.92
2022-12-31T01:04:15.519Z,1.70
2022-12-31T01:06:43.735Z,3.65
2022-12-31T01:09:15.855Z,3.80
2022-12-31T01:11:43.004Z,3.25
2022-12-31T01:14:18.188Z,1.98
2022-12-31T01:16:49.251Z,3.45
2022-12-31T01:19:20.935Z,2.83
2022-12-31T01:21:52.695Z,6.68
2022-12-31T01:24:20.381Z,1.88
2022-12-31T01:26:47.978Z,1.52
2022-12-31T01:29:14.991Z,4.35
2022-12-31T01:31:43.181Z,2.63
2022-12-31T01:34:10.181Z,2.80
2022-12-31T01:36:38.574Z,2.53
2022-12-31T01:39:08.431Z,3.15
2022-12-31T01:41:40.472Z,4.32
2022-12-31T01:44:13.413Z,3.25
2022-12-31T01:47:00.349Z,3.58
2022-12-31T01:50:01.266Z,1.77
2022-12-31T01:52:35.104Z,3.22
2022-12-31T01:55:16.397Z,3.85
2022-12-31T01:57:50.821Z,3.05
2022-12-31T02:00:17.751Z,2.78
2022-12-31T02:02:45.653Z,4.43
2022-12-31T02:05:35.734Z,3.50
2022-12-31T02:08:03.501Z,3.75
2022-12-31T02:10:30.279Z,3.95
2022-12-31T02:12:57.770Z,1.67
2022-12-31T02:15:59.620Z,2.10
2022-12-31T02:18:57.951Z,2.80
2022-12-31T02:21:46.225Z,1.83
2022-12-31T02:24:47.251Z,2.42
2022-12-31T02:28:01.878Z,1.67
2022-12-31T02:30:33.168Z,2.05
2022-12-31T02:33:13.497Z,4.15
2022-12-31T02:36:02.943Z,1.40
2022-12-31T02:38:47.624Z,2.67
2022-12-31T02:41:36.962Z,1.58
2022-12-31T02:44:29.822Z,1.83
2022-12-31T02:47:09.736Z,2.92
2022-12-31T02:50:10.631Z,1.55
2022-12-31T02:53:08.048Z,3.20
2022-12-31T02:56:06.085Z,1.55
2022-12-31T02:59:34.013Z,1.95
2022-12-31T03:02:14.698Z,1.65
2022-12-31T03:04:53.776Z,1.20
2022-12-31T03:07:29.911Z,0.68
2022-12-31T03:09:56.662Z,3.78
2022-12-31T03:12:46.561Z,1.00
2022-12-31T03:15:39.348Z,1.95
2022-12-31T03:18:07.529Z,5.65
2022-12-31T03:21:09.148Z,2.25
2022-12-31T03:23:41.843Z,2.08
2022-12-31T03:26:12.268Z,2.60
2022-12-31T03:28:47.537Z,1.05
2022-12-31T03:31:14.408Z,1.63
2022-12-31T03:33:42.337Z,2.35
2022-12-31T03:36:14.450Z,1.63
2022-12-31T03:38:41.803Z,1.38
2022-12-31T03:41:11.473Z,2.38
2022-12-31T03:43:38.586Z,1.50
2022-12-31T03:46:05.641Z,1.00
2022-12-31T03:48:32.419Z,1.60
2022-12-31T03:50:59.188Z,2.05
2022-12-31T03:53:27.382Z,1.38
2022-12-31T03:55:54.945Z,2.97
2022-12-31T03:58:22.874Z,0.57
2022-12-31T04:00:50.436Z,1.17
2022-12-31T04:03:17.538Z,3.33
2022-12-31T04:05:44.365Z,0.93
2022-12-31T04:08:11.178Z,1.13
2022-12-31T04:10:38.061Z,2.20
2022-12-31T04:13:05.043Z,1.92
2022-12-31T04:15:32.345Z,2.78
2022-12-31T04:17:59.090Z,1.45
2022-12-31T04:20:26.015Z,1.15
2022-12-31T04:22:52.841Z,1.98
2022-12-31T04:25:19.697Z,2.30
2022-12-31T04:27:46.581Z,1.75
2022-12-31T04:30:14.119Z,1.33
2022-12-31T04:32:42.275Z,2.10
2022-12-31T04:35:13.114Z,0.70
2022-12-31T04:37:39.916Z,1.55
2022-12-31T04:40:08.513Z,1.65
2022-12-31T04:42:36.281Z,0.68
2022-12-31T04:45:04.820Z,1.98
2022-12-31T04:47:32.681Z,2.17
2022-12-31T04:49:59.383Z,1.13
2022-12-31T04:52:26.138Z,1.75
2022-12-31T04:54:52.902Z,3.15
2022-12-31T04:57:20.753Z,0.85
2022-12-31T04:59:47.679Z,1.40
2022-12-31T05:02:14.622Z,1.43
2022-12-31T05:04:41.549Z,1.20
2022-12-31T05:07:08.377Z,2.45
2022-12-31T05:09:35.161Z,2.17
2022-12-31T05:12:01.990Z,2.10
2022-12-31T05:14:28.839Z,1.20
2022-12-31T05:16:55.795Z,2.20
2022-12-31T05:19:22.625Z,1.42
2022-12-31T05:22:09.353Z,2.13
2022-12-31T05:24:36.387Z,1.42
2022-12-31T05:27:03.509Z,3.10
2022-12-31T05:29:31.612Z,2.13
2022-12-31T05:31:58.404Z,2.00
2022-12-31T05:34:25.250Z,2.22
2022-12-31T05:36:51.959Z,1.42
2022-12-31T05:39:18.781Z,1.60
2022-12-31T05:41:45.576Z,1.73
2022-12-31T05:44:12.452Z,1.70
2022-12-31T05:46:39.217Z,1.58
2022-12-31T05:49:05.984Z,1.20
2022-12-31T05:51:32.712Z,1.98
2022-12-31T05:53:59.476Z,1.50
2022-12-31T05:56:26.266Z,1.23
2022-12-31T05:58:53.064Z,1.73
2022-12-31T06:01:20.011Z,1.20
2022-12-31T06:03:47.112Z,2.08
2022-12-31T06:06:14.110Z,0.93
2022-12-31T06:08:40.944Z,0.77
2022-12-31T06:11:10.220Z,0.73
2022-12-31T06:13:36.971Z,0.70
2022-12-31T06:16:09.256Z,0.75
2022-12-31T06:18:36.584Z,0.70
2022-12-31T06:21:04.119Z,0.80
2022-12-31T06:23:31.139Z,0.50
2022-12-31T06:26:02.061Z,0.68
2022-12-31T06:28:28.759Z,0.85
2022-12-31T06:31:11.859Z,0.55
2022-12-31T06:33:38.619Z,0.75
2022-12-31T06:36:11.413Z,0.95
2022-12-31T06:38:40.799Z,3.10
2022-12-31T06:41:13.285Z,1.40
2022-12-31T06:43:41.996Z,1.25
2022-12-31T06:46:15.297Z,2.42
2022-12-31T06:48:46.829Z,2.35
2022-12-31T06:51:18.885Z,2.67
2022-12-31T06:53:48.329Z,2.30
2022-12-31T06:56:33.059Z,2.90
2022-12-31T06:59:01.675Z,2.58
2022-12-31T07:02:03.709Z,2.00
2022-12-31T07:05:32.078Z,1.60
2022-12-31T07:08:04.416Z,1.55
2022-12-31T07:10:45.602Z,1.10
2022-12-31T07:13:40.946Z,1.63
2022-12-31T07:17:20.572Z,0.63
2022-12-31T07:20:11.691Z,0.75
2022-12-31T07:22:38.870Z,0.40
2022-12-31T07:25:12.726Z,0.70
2022-12-31T07:28:13.065Z,0.57
2022-12-31T07:30:56.342Z,0.20
2022-12-31T07:33:41.094Z,0.38
2022-12-31T07:36:23.771Z,0.43
2022-12-31T07:39:14.651Z,0.20
2022-12-31T07:42:04.956Z,0.38
2022-12-31T07:44:42.143Z,0.20
2022-12-31T07:47:30.043Z,0.60
2022-12-31T07:49:58.746Z,0.47
2022-12-31T07:52:26.232Z,0.57
2022-12-31T07:54:53.005Z,0.52
2022-12-31T07:57:28.338Z,0.55
2022-12-31T08:00:21.050Z,0.22
2022-12-31T08:03:38.674Z,0.40
2022-12-31T08:06:29.271Z,0.30
2022-12-31T08:09:42.780Z,0.80
2022-12-31T08:12:09.915Z,0.65
2022-12-31T08:14:45.209Z,0.22
2022-12-31T08:17:18.827Z,3.75
2022-12-31T08:19:46.612Z,0.38
2022-12-31T08:22:40.982Z,1.67
2022-12-31T08:25:50.625Z,2.78
2022-12-31T08:28:50.960Z,1.05
2022-12-31T08:31:49.657Z,2.15
2022-12-31T08:34:41.108Z,0.75
2022-12-31T08:37:31.049Z,0.95
2022-12-31T08:40:45.625Z,1.15
2022-12-31T08:43:39.479Z,1.08
2022-12-31T08:46:37.783Z,0.55
2022-12-31T08:49:07.831Z,0.93
2022-12-31T08:51:34.937Z,0.90
2022-12-31T08:54:02.173Z,1.25
2022-12-31T08:56:56.837Z,1.05
2022-12-31T08:59:43.444Z,1.42
2022-12-31T09:02:31.710Z,0.73
2022-12-31T09:05:47.795Z,1.10
2022-12-31T09:08:50.992Z,0.65
2022-12-31T09:11:47.536Z,1.33
2022-12-31T09:15:03.708Z,2.03
2022-12-31T09:17:50.902Z,0.73
2022-12-31T09:20:26.140Z,2.40
2022-12-31T09:22:58.073Z,1.98
2022-12-31T09:25:27.565Z,2.42
2022-12-31T09:28:12.663Z,2.88
2022-12-31T09:31:19.095Z,2.10
2022-12-31T09:34:03.264Z,2.67
2022-12-31T09:36:46.226Z,0.80
2022-12-31T09:39:32.315Z,3.17
2022-12-31T09:42:25.282Z,1.35
2022-12-31T09:45:28.203Z,2.17
2022-12-31T09:48:33.046Z,1.38
2022-12-31T09:51:09.840Z,2.38
2022-12-31T09:54:00.058Z,2.05
2022-12-31T09:56:34.362Z,1.63
2022-12-31T09:59:13.762Z,2.03
2022-12-31T10:01:56.701Z,1.27
2022-12-31T10:05:02.161Z,2.85
2022-12-31T10:07:57.384Z,1.27
2022-12-31T10:11:00.221Z,0.55
2022-12-31T10:13:47.822Z,5.03
2022-12-31T10:16:56.049Z,1.35
2022-12-31T10:20:00.889Z,3.50
2022-12-31T10:22:56.338Z,1.95
2022-12-31T10:25:38.623Z,1.25
2022-12-31T10:28:46.182Z,1.63
2022-12-31T10:31:30.181Z,2.22
2022-12-31T10:34:13.657Z,1.63
2022-12-31T10:36:57.958Z,3.10
2022-12-31T10:39:36.655Z,2.75
2022-12-31T10:42:52.006Z,1.73
2022-12-31T10:45:47.693Z,2.55
2022-12-31T10:48:56.378Z,1.88
2022-12-31T10:51:43.623Z,1.77
2022-12-31T10:54:50.008Z,1.75
2022-12-31T10:58:03.613Z,4.00
2022-12-31T11:00:56.168Z,2.35
2022-12-31T11:04:12.007Z,1.05
2022-12-31T11:07:19.540Z,3.03
2022-12-31T11:10:16.245Z,1.67
2022-12-31T11:13:02.726Z,2.17
2022-12-31T11:16:00.856Z,1.80
2022-12-31T11:18:52.794Z,2.20
2022-12-31T11:22:20.948Z,5.82
2022-12-31T11:25:11.818Z,4.15
2022-12-31T11:28:18.792Z,3.83
2022-12-31T11:31:19.315Z,2.20
2022-12-31T11:34:43.094Z,2.13
2022-12-31T11:37:44.853Z,1.98
2022-12-31T11:40:44.827Z,3.53
2022-12-31T11:43:41.433Z,3.20
2022-12-31T11:46:52.051Z,2.20
2022-12-31T11:49:40.266Z,5.13
2022-12-31T11:52:34.306Z,2.95
2022-12-31T11:55:46.355Z,5.50
2022-12-31T11:58:28.468Z,4.70
2022-12-31T12:01:32.482Z,2.08
2022-12-31T12:04:00.325Z,6.47
2022-12-31T12:06:32.836Z,3.45
2022-12-31T12:09:18.924Z,4.45
2022-12-31T12:11:45.741Z,2.55
2022-12-31T12:14:37.599Z,4.00
2022-12-31T12:17:10.450Z,3.67
2022-12-31T12:20:05.903Z,4.97
2022-12-31T12:22:32.698Z,3.50
2022-12-31T12:25:17.301Z,5.80
2022-12-31T12:27:44.142Z,3.72
2022-12-31T12:30:38.227Z,4.25
2022-12-31T12:33:04.987Z,5.88
2022-12-31T12:35:35.818Z,8.70
2022-12-31T12:38:13.640Z,4.32
2022-12-31T12:40:41.545Z,2.20
2022-12-31T12:43:27.077Z,4.03
2022-12-31T12:46:00.809Z,2.97
2022-12-31T12:48:49.403Z,4.20
2022-12-31T12:51:59.720Z,3.83
2022-12-31T12:55:07.532Z,5.95
2022-12-31T12:57:55.383Z,4.13
2022-12-31T13:00:33.616Z,3.45
2022-12-31T13:03:25.454Z,2.85
2022-12-31T13:05:58.039Z,3.75
2022-12-31T13:08:57.929Z,5.15
2022-12-31T13:12:07.778Z,3.97
2022-12-31T13:15:12.637Z,4.63
2022-12-31T13:18:12.604Z,1.80
2022-12-31T13:20:53.750Z,3.03
2022-12-31T13:24:05.097Z,3.53
2022-12-31T13:27:23.556Z,2.30
2022-12-31T13:29:52.637Z,3.33
2022-12-31T13:32:34.932Z,3.20
2022-12-31T13:35:21.399Z,2.28
2022-12-31T13:38:27.890Z,4.25
2022-12-31T13:40:57.572Z,3.08
2022-12-31T13:44:16.796Z,4.03
2022-12-31T13:47:10.540Z,4.40
2022-12-31T13:49:54.771Z,4.88
2022-12-31T13:52:42.745Z,5.28
2022-12-31T13:55:13.353Z,7.57
2022-12-31T13:57:55.001Z,5.65
2022-12-31T14:00:27.209Z,5.43
2022-12-31T14:03:09.955Z,2.67
2022-12-31T14:06:00.898Z,4.25
2022-12-31T14:08:28.199Z,5.57
2022-12-31T14:11:22.679Z,3.38
2022-12-31T14:14:17.920Z,4.45
2022-12-31T14:17:11.210Z,2.28
2022-12-31T14:20:23.514Z,5.35
2022-12-31T14:23:16.040Z,3.35
2022-12-31T14:26:42.602Z,3.03
2022-12-31T14:29:11.996Z,2.67
2022-12-31T14:31:55.080Z,4.30
2022-12-31T14:34:39.829Z,3.70
2022-12-31T14:37:44.929Z,2.25
2022-12-31T14:40:48.681Z,5.30
2022-12-31T14:43:34.604Z,2.63
2022-12-31T14:46:31.183Z,6.43
2022-12-31T14:49:03.579Z,4.93
2022-12-31T14:51:31.473Z,3.63
2022-12-31T14:53:59.043Z,5.97
2022-12-31T14:56:43.990Z,5.68
2022-12-31T14:59:40.070Z,5.85
2022-12-31T15:02:31.506Z,4.55
2022-12-31T15:05:10.641Z,5.95
2022-12-31T15:08:08.125Z,3.42
2022-12-31T15:11:30.345Z,5.25
2022-12-31T15:14:37.488Z,4.57
2022-12-31T15:17:44.735Z,8.48
2022-12-31T15:20:44.173Z,5.43
2022-12-31T15:23:39.581Z,8.77
2022-12-31T15:26:19.225Z,9.63
2022-12-31T15:28:46.150Z,6.40
2022-12-31T15:31:23.186Z,7.22
2022-12-31T15:34:00.127Z,6.85
2022-12-31T15:36:38.775Z,7.18
2022-12-31T15:39:11.569Z,8.38
2022-12-31T15:42:10.260Z,7.28
2022-12-31T15:44:54.861Z,7.57
2022-12-31T15:47:34.394Z,6.55
2022-12-31T15:50:16.709Z,5.47
2022-12-31T15:52:58.954Z,8.00
2022-12-31T15:55:34.133Z,9.93
2022-12-31T15:58:26.253Z,9.63
2022-12-31T16:01:06.541Z,9.10
2022-12-31T16:03:33.841Z,10.57
2022-12-31T16:06:13.015Z,8.02
2022-12-31T16:08:45.813Z,7.88
2022-12-31T16:11:14.741Z,5.40
2022-12-31T16:13:48.524Z,5.60
2022-12-31T16:16:26.120Z,9.38
2022-12-31T16:18:55.699Z,6.63
2022-12-31T16:21:38.884Z,12.57
2022-12-31T16:24:23.138Z,9.25
2022-12-31T16:26:54.748Z,13.30
2022-12-31T16:29:24.134Z,8.05
2022-12-31T16:31:54.007Z,12.35
2022-12-31T16:34:27.303Z,5.80
2022-12-31T16:36:59.752Z,7.40
2022-12-31T16:39:29.962Z,9.43
2022-12-31T16:42:14.200Z,5.45
2022-12-31T16:44:42.538Z,9.77
2022-12-31T16:47:34.336Z,11.00
2022-12-31T16:50:23.969Z,20.85
2022-12-31T16:53:04.103Z,12.52
2022-12-31T16:55:34.412Z,11.13
2022-12-31T16:58:34.492Z,9.65
2022-12-31T17:01:19.906Z,7.30
2022-12-31T17:03:55.006Z,6.68
2022-12-31T17:06:23.088Z,8.52
2022-12-31T17:09:15.566Z,9.93
2022-12-31T17:11:54.856Z,8.77
2022-12-31T17:14:30.353Z,9.18
2022-12-31T17:17:07.927Z,5.53
2022-12-31T17:19:39.748Z,6.88
2022-12-31T17:22:36.739Z,10.77
2022-12-31T17:25:20.477Z,7.07
2022-12-31T17:28:07.792Z,8.55
2022-12-31T17:30:36.072Z,6.85
2022-12-31T17:33:23.105Z,11.82
2022-12-31T17:36:20.282Z,8.00
2022-12-31T17:38:47.281Z,6.43
2022-12-31T17:41:23.178Z,10.18
2022-12-31T17:43:58.846Z,7.80
2022-12-31T17:46:26.780Z,8.02
2022-12-31T17:49:01.274Z,10.25
2022-12-31T17:51:28.005Z,6.85
2022-12-31T17:53:54.821Z,8.50
2022-12-31T17:56:21.724Z,9.07
2022-12-31T17:58:54.509Z,12.13
2022-12-31T18:01:23.488Z,8.93
2022-12-31T18:03:50.628Z,7.55
2022-12-31T18:06:19.948Z,10.68
2022-12-31T18:08:46.964Z,7.97
2022-12-31T18:11:24.252Z,9.18
2022-12-31T18:13:53.399Z,8.75
2022-12-31T18:16:23.300Z,4.97
2022-12-31T18:18:50.137Z,8.52
2022-12-31T18:21:36.086Z,7.68
2022-12-31T18:26:32.989Z,7.43
2022-12-31T18:29:10.946Z,9.80
2022-12-31T18:31:37.906Z,10.80
2022-12-31T18:34:04.850Z,8.05
2022-12-31T18:36:31.605Z,7.82
2022-12-31T18:38:58.355Z,6.47
2022-12-31T18:41:33.344Z,7.07
2022-12-31T18:44:00.077Z,7.70
2022-12-31T18:46:30.426Z,8.02
2022-12-31T18:48:57.133Z,8.50
2022-12-31T18:51:31.494Z,8.82
2022-12-31T18:54:00.571Z,19.20
2022-12-31T18:56:27.797Z,10.13
2022-12-31T18:58:55.057Z,11.05
2022-12-31T19:01:27.066Z,8.25
2022-12-31T19:03:57.457Z,9.35
2022-12-31T19:06:24.505Z,9.75
2022-12-31T19:08:51.983Z,7.00
2022-12-31T19:11:19.441Z,7.72
2022-12-31T19:13:47.250Z,11.32
2022-12-31T19:16:14.273Z,15.05
2022-12-31T19:18:42.244Z,9.60
2022-12-31T19:21:22.428Z,9.75
2022-12-31T19:23:50.544Z,7.13
2022-12-31T19:26:21.287Z,5.75
2022-12-31T19:28:50.120Z,8.25
2022-12-31T19:31:17.520Z,9.70
2022-12-31T19:33:44.826Z,10.27
2022-12-31T19:36:20.084Z,8.90
2022-12-31T19:38:47.310Z,6.90
2022-12-31T19:41:20.660Z,7.50
2022-12-31T19:43:48.404Z,11.40
2022-12-31T19:46:17.910Z,8.55
2022-12-31T19:48:46.006Z,9.55
2022-12-31T19:51:18.744Z,7.82
2022-12-31T19:53:47.147Z,6.75
2022-12-31T19:56:18.960Z,7.20
2022-12-31T19:58:46.110Z,5.28
2022-12-31T20:01:21.042Z,7.00
2022-12-31T20:03:49.088Z,6.75
2022-12-31T20:06:17.187Z,8.02
2022-12-31T20:08:44.310Z,7.35
2022-12-31T20:11:18.782Z,12.45
2022-12-31T20:13:48.768Z,6.88
2022-12-31T20:16:19.306Z,10.25
2022-12-31T20:18:48.158Z,8.20
2022-12-31T20:21:21.488Z,7.80
2022-12-31T20:23:50.925Z,8.35
2022-12-31T20:26:19.456Z,6.38
2022-12-31T20:28:46.955Z,11.70
2022-12-31T20:31:18.112Z,10.75
2022-12-31T20:33:45.201Z,6.97
2022-12-31T20:36:14.736Z,8.02
2022-12-31T20:38:41.843Z,6.53
2022-12-31T20:41:33.047Z,9.18
2022-12-31T20:44:00.504Z,6.43
2022-12-31T20:46:30.294Z,14.15
2022-12-31T20:49:01.610Z,10.05
2022-12-31T20:51:32.628Z,10.15
2022-12-31T20:54:09.299Z,15.25
2022-12-31T20:56:39.896Z,22.20
2022-12-31T20:59:09.029Z,4.95
2022-12-31T21:02:11.546Z,9.10
2022-12-31T21:04:25.575Z,7.60
2022-12-31T21:06:52.501Z,7.63
2022-12-31T21:09:19.219Z,7.18
2022-12-31T21:12:04.406Z,12.68
2022-12-31T21:14:31.169Z,8.63
2022-12-31T21:16:57.917Z,7.57
2022-12-31T21:19:24.687Z,8.75
2022-12-31T21:21:51.442Z,6.80
2022-12-31T21:24:23.586Z,10.73
2022-12-31T21:26:51.883Z,8.27
2022-12-31T21:29:18.661Z,6.35
2022-12-31T21:31:47.086Z,8.68
2022-12-31T21:34:13.861Z,11.43
2022-12-31T21:36:40.660Z,11.40
2022-12-31T21:39:07.400Z,8.63
2022-12-31T21:41:52.223Z,8.77
2022-12-31T21:44:28.788Z,10.52
2022-12-31T21:47:41.063Z,8.48
2022-12-31T21:50:08.042Z,8.38
2022-12-31T21:52:37.492Z,8.82
2022-12-31T21:55:26.347Z,6.43
2022-12-31T21:58:25.334Z,8.25
2022-12-31T22:00:59.904Z,8.90
2022-12-31T22:03:28.881Z,8.88
2022-12-31T22:06:10.148Z,8.15
2022-12-31T22:08:37.134Z,8.75
2022-12-31T22:11:03.888Z,8.52
2022-12-31T22:13:31.103Z,8.68
2022-12-31T22:16:04.917Z,7.22
2022-12-31T22:18:35.982Z,7.55
2022-12-31T22:21:21.743Z,10.48
2022-12-31T22:23:52.150Z,7.63
2022-12-31T22:26:23.455Z,8.38
2022-12-31T22:28:50.985Z,6.20
2022-12-31T22:31:23.239Z,8.25
2022-12-31T22:33:50.382Z,8.15
2022-12-31T22:36:22.555Z,6.32
2022-12-31T22:38:54.525Z,7.40
2022-12-31T22:41:23.034Z,7.50
2022-12-31T22:44:00.500Z,8.07
2022-12-31T22:46:29.998Z,7.20
2022-12-31T22:49:00.704Z,9.00
2022-12-31T22:51:57.735Z,12.27
2022-12-31T22:54:15.666Z,12.30
2022-12-31T22:56:42.406Z,16.48
2022-12-31T22:59:09.871Z,11.80
2022-12-31T23:01:37.123Z,10.40
2022-12-31T23:04:04.938Z,10.57
2022-12-31T23:06:32.236Z,13.18
2022-12-31T23:09:17.579Z,16.35
2022-12-31T23:11:44.438Z,31.52
2022-12-31T23:14:35.858Z,30.00
2022-12-31T23:17:30.016Z,31.27
2022-12-31T23:20:18.915Z,38.08
2022-12-31T23:23:06.813Z,33.60
2022-12-31T23:25:39.301Z,34.63
2022-12-31T23:28:14.260Z,33.15
2022-12-31T23:30:42.603Z,46.15
2022-12-31T23:33:20.046Z,35.17
2022-12-31T23:35:47.348Z,33.45
2022-12-31T23:38:17.370Z,32.35
2022-12-31T23:40:44.971Z,34.63
2022-12-31T23:43:22.528Z,27.88
2022-12-31T23:45:52.412Z,29.13
2022-12-31T23:48:19.568Z,27.45
2022-12-31T23:50:53.413Z,32.00
2022-12-31T23:53:23.625Z,27.15
2022-12-31T23:55:52.359Z,25.67
2022-12-31T23:58:19.296Z,25.00
